sensor_id;sensor_type;location;lat;lon;timestamp;P1;durP1;ratioP1;P2;durP2;ratioP2
62941;SDS011;49042;47.318;19.874;2022-07-01T00:00:05;9.77;;;4.60;;
62941;SDS011;49042;47.318;19.874;2022-07-01T00:03:15;22.85;;;5.15;;
62941;SDS011;49042;47.318;19.874;2022-07-01T00:06:17;17.05;;;4.80;;
62941;SDS011;49042;47.318;19.874;2022-07-01T00:09:19;14.95;;;5.03;;
62941;SDS011;49042;47.318;19.874;2022-07-01T00:12:22;14.02;;;4.07;;
62941;SDS011;49042;47.318;19.874;2022-07-01T00:15:24;12.37;;;4.43;;
62941;SDS011;49042;47.318;19.874;2022-07-01T00:18:25;12.13;;;4.78;;
62941;SDS011;49042;47.318;19.874;2022-07-01T00:21:27;10.52;;;4.40;;
62941;SDS011;49042;47.318;19.874;2022-07-01T00:24:32;24.70;;;5.05;;
62941;SDS011;49042;47.318;19.874;2022-07-01T00:27:38;9.57;;;4.40;;
62941;SDS011;49042;47.318;19.874;2022-07-01T00:30:43;17.65;;;4.75;;
62941;SDS011;49042;47.318;19.874;2022-07-01T00:33:45;12.70;;;5.32;;
62941;SDS011;49042;47.318;19.874;2022-07-01T00:36:55;12.60;;;4.68;;
62941;SDS011;49042;47.318;19.874;2022-07-01T00:39:57;15.95;;;4.75;;
62941;SDS011;49042;47.318;19.874;2022-07-01T00:42:59;9.23;;;4.30;;
62941;SDS011;49042;47.318;19.874;2022-07-01T00:46:04;10.23;;;4.45;;
62941;SDS011;49042;47.318;19.874;2022-07-01T00:49:06;13.15;;;4.53;;
62941;SDS011;49042;47.318;19.874;2022-07-01T00:52:09;15.63;;;4.65;;
62941;SDS011;49042;47.318;19.874;2022-07-01T00:55:12;12.75;;;4.30;;
62941;SDS011;49042;47.318;19.874;2022-07-01T00:58:18;15.00;;;5.35;;
62941;SDS011;49042;47.318;19.874;2022-07-01T01:01:20;11.82;;;4.87;;
62941;SDS011;49042;47.318;19.874;2022-07-01T01:04:23;17.20;;;4.70;;
62941;SDS011;49042;47.318;19.874;2022-07-01T01:07:25;12.20;;;4.35;;
62941;SDS011;49042;47.318;19.874;2022-07-01T01:10:28;20.45;;;4.90;;
62941;SDS011;49042;47.318;19.874;2022-07-01T01:13:31;16.50;;;4.87;;
62941;SDS011;49042;47.318;19.874;2022-07-01T01:16:33;11.40;;;5.25;;
62941;SDS011;49042;47.318;19.874;2022-07-01T01:19:37;8.75;;;4.65;;
62941;SDS011;49042;47.318;19.874;2022-07-01T01:22:38;10.75;;;4.95;;
62941;SDS011;49042;47.318;19.874;2022-07-01T01:25:41;10.70;;;4.82;;
62941;SDS011;49042;47.318;19.874;2022-07-01T01:28:43;18.37;;;4.72;;
62941;SDS011;49042;47.318;19.874;2022-07-01T01:31:45;15.68;;;4.70;;
62941;SDS011;49042;47.318;19.874;2022-07-01T01:34:48;14.50;;;4.90;;
62941;SDS011;49042;47.318;19.874;2022-07-01T01:37:52;8.00;;;4.25;;
62941;SDS011;49042;47.318;19.874;2022-07-01T01:40:54;13.02;;;5.30;;
62941;SDS011;49042;47.318;19.874;2022-07-01T01:43:56;11.65;;;4.28;;
62941;SDS011;49042;47.318;19.874;2022-07-01T01:46:58;8.88;;;4.53;;
62941;SDS011;49042;47.318;19.874;2022-07-01T01:50:00;9.93;;;5.03;;
62941;SDS011;49042;47.318;19.874;2022-07-01T01:53:02;13.00;;;5.72;;
62941;SDS011;49042;47.318;19.874;2022-07-01T01:56:04;15.27;;;4.47;;
62941;SDS011;49042;47.318;19.874;2022-07-01T01:59:06;18.77;;;5.07;;
62941;SDS011;49042;47.318;19.874;2022-07-01T02:02:08;11.95;;;4.78;;
62941;SDS011;49042;47.318;19.874;2022-07-01T02:05:11;12.37;;;4.65;;
62941;SDS011;49042;47.318;19.874;2022-07-01T02:08:14;11.88;;;4.25;;
62941;SDS011;49042;47.318;19.874;2022-07-01T02:11:15;10.07;;;4.57;;
62941;SDS011;49042;47.318;19.874;2022-07-01T02:14:17;10.65;;;5.00;;
62941;SDS011;49042;47.318;19.874;2022-07-01T02:17:19;14.87;;;4.93;;
62941;SDS011;49042;47.318;19.874;2022-07-01T02:20:21;14.40;;;5.18;;
62941;SDS011;49042;47.318;19.874;2022-07-01T02:23:23;13.75;;;5.03;;
62941;SDS011;49042;47.318;19.874;2022-07-01T02:26:28;9.55;;;4.55;;
62941;SDS011;49042;47.318;19.874;2022-07-01T02:29:29;18.15;;;4.70;;
62941;SDS011;49042;47.318;19.874;2022-07-01T02:32:32;11.63;;;4.90;;
62941;SDS011;49042;47.318;19.874;2022-07-01T02:35:37;17.70;;;4.68;;
62941;SDS011;49042;47.318;19.874;2022-07-01T02:38:45;12.40;;;4.60;;
62941;SDS011;49042;47.318;19.874;2022-07-01T02:41:46;12.95;;;5.03;;
62941;SDS011;49042;47.318;19.874;2022-07-01T02:45:07;14.02;;;4.72;;
62941;SDS011;49042;47.318;19.874;2022-07-01T02:48:09;17.70;;;4.40;;
62941;SDS011;49042;47.318;19.874;2022-07-01T02:51:11;10.13;;;4.90;;
62941;SDS011;49042;47.318;19.874;2022-07-01T02:54:13;9.23;;;4.43;;
62941;SDS011;49042;47.318;19.874;2022-07-01T02:57:15;12.52;;;4.53;;
62941;SDS011;49042;47.318;19.874;2022-07-01T03:00:17;11.23;;;4.82;;
62941;SDS011;49042;47.318;19.874;2022-07-01T03:03:20;9.75;;;4.90;;
62941;SDS011;49042;47.318;19.874;2022-07-01T03:06:22;12.70;;;5.10;;
62941;SDS011;49042;47.318;19.874;2022-07-01T03:09:24;15.98;;;4.87;;
62941;SDS011;49042;47.318;19.874;2022-07-01T03:12:26;11.00;;;5.40;;
62941;SDS011;49042;47.318;19.874;2022-07-01T03:15:31;10.68;;;5.00;;
62941;SDS011;49042;47.318;19.874;2022-07-01T03:18:33;9.38;;;4.68;;
62941;SDS011;49042;47.318;19.874;2022-07-01T03:21:35;13.88;;;4.68;;
62941;SDS011;49042;47.318;19.874;2022-07-01T03:24:36;15.52;;;5.18;;
62941;SDS011;49042;47.318;19.874;2022-07-01T03:27:39;12.02;;;4.68;;
62941;SDS011;49042;47.318;19.874;2022-07-01T03:30:46;9.07;;;4.80;;
62941;SDS011;49042;47.318;19.874;2022-07-01T03:33:48;10.38;;;4.25;;
62941;SDS011;49042;47.318;19.874;2022-07-01T03:36:50;9.90;;;5.75;;
62941;SDS011;49042;47.318;19.874;2022-07-01T03:39:52;12.93;;;4.97;;
62941;SDS011;49042;47.318;19.874;2022-07-01T03:42:55;15.65;;;5.47;;
62941;SDS011;49042;47.318;19.874;2022-07-01T03:45:57;12.37;;;4.80;;
62941;SDS011;49042;47.318;19.874;2022-07-01T03:48:59;13.55;;;5.28;;
62941;SDS011;49042;47.318;19.874;2022-07-01T03:52:03;19.48;;;5.30;;
62941;SDS011;49042;47.318;19.874;2022-07-01T03:55:06;12.10;;;4.55;;
62941;SDS011;49042;47.318;19.874;2022-07-01T03:58:08;12.00;;;5.18;;
62941;SDS011;49042;47.318;19.874;2022-07-01T04:01:10;15.82;;;5.32;;
62941;SDS011;49042;47.318;19.874;2022-07-01T04:04:11;10.30;;;5.15;;
62941;SDS011;49042;47.318;19.874;2022-07-01T04:07:13;12.63;;;4.93;;
62941;SDS011;49042;47.318;19.874;2022-07-01T04:10:15;14.10;;;5.37;;
62941;SDS011;49042;47.318;19.874;2022-07-01T04:13:17;15.70;;;4.75;;
62941;SDS011;49042;47.318;19.874;2022-07-01T04:16:35;19.33;;;5.03;;
62941;SDS011;49042;47.318;19.874;2022-07-01T04:19:38;11.23;;;5.03;;
62941;SDS011;49042;47.318;19.874;2022-07-01T04:22:40;13.77;;;5.20;;
62941;SDS011;49042;47.318;19.874;2022-07-01T04:25:42;15.52;;;4.97;;
62941;SDS011;49042;47.318;19.874;2022-07-01T04:28:43;12.10;;;5.05;;
62941;SDS011;49042;47.318;19.874;2022-07-01T04:31:45;10.60;;;4.68;;
62941;SDS011;49042;47.318;19.874;2022-07-01T04:34:47;10.57;;;4.37;;
62941;SDS011;49042;47.318;19.874;2022-07-01T04:37:49;9.55;;;4.95;;
62941;SDS011;49042;47.318;19.874;2022-07-01T04:40:51;12.10;;;4.53;;
62941;SDS011;49042;47.318;19.874;2022-07-01T04:44:11;20.27;;;5.28;;
62941;SDS011;49042;47.318;19.874;2022-07-01T04:47:13;10.23;;;4.70;;
62941;SDS011;49042;47.318;19.874;2022-07-01T04:50:15;10.45;;;5.30;;
62941;SDS011;49042;47.318;19.874;2022-07-01T04:53:17;15.07;;;6.22;;
62941;SDS011;49042;47.318;19.874;2022-07-01T04:56:19;17.87;;;6.80;;
62941;SDS011;49042;47.318;19.874;2022-07-01T04:59:21;17.35;;;6.87;;
62941;SDS011;49042;47.318;19.874;2022-07-01T05:02:23;18.48;;;6.10;;
62941;SDS011;49042;47.318;19.874;2022-07-01T05:05:25;13.48;;;5.65;;
62941;SDS011;49042;47.318;19.874;2022-07-01T05:08:27;12.52;;;5.45;;
62941;SDS011;49042;47.318;19.874;2022-07-01T05:11:30;13.50;;;5.20;;
62941;SDS011;49042;47.318;19.874;2022-07-01T05:14:31;12.07;;;5.05;;
62941;SDS011;49042;47.318;19.874;2022-07-01T05:17:33;15.32;;;4.75;;
62941;SDS011;49042;47.318;19.874;2022-07-01T05:20:54;18.33;;;4.57;;
62941;SDS011;49042;47.318;19.874;2022-07-01T05:24:14;13.38;;;5.05;;
62941;SDS011;49042;47.318;19.874;2022-07-01T05:27:16;11.02;;;4.57;;
62941;SDS011;49042;47.318;19.874;2022-07-01T05:30:18;11.40;;;4.22;;
62941;SDS011;49042;47.318;19.874;2022-07-01T05:33:20;14.07;;;5.15;;
62941;SDS011;49042;47.318;19.874;2022-07-01T05:36:27;13.00;;;4.20;;
62941;SDS011;49042;47.318;19.874;2022-07-01T05:39:29;7.25;;;3.72;;
62941;SDS011;49042;47.318;19.874;2022-07-01T05:42:31;17.65;;;4.47;;
62941;SDS011;49042;47.318;19.874;2022-07-01T05:45:33;10.48;;;5.00;;
62941;SDS011;49042;47.318;19.874;2022-07-01T05:48:35;14.60;;;4.87;;
62941;SDS011;49042;47.318;19.874;2022-07-01T05:51:37;12.35;;;4.68;;
62941;SDS011;49042;47.318;19.874;2022-07-01T05:54:39;12.40;;;4.57;;
62941;SDS011;49042;47.318;19.874;2022-07-01T05:57:41;10.98;;;4.70;;
62941;SDS011;49042;47.318;19.874;2022-07-01T06:00:43;8.35;;;5.10;;
62941;SDS011;49042;47.318;19.874;2022-07-01T06:03:45;8.25;;;4.53;;
62941;SDS011;49042;47.318;19.874;2022-07-01T06:06:47;10.77;;;3.78;;
62941;SDS011;49042;47.318;19.874;2022-07-01T06:09:49;8.98;;;3.90;;
62941;SDS011;49042;47.318;19.874;2022-07-01T06:12:50;9.27;;;4.25;;
62941;SDS011;49042;47.318;19.874;2022-07-01T06:15:52;13.60;;;4.15;;
62941;SDS011;49042;47.318;19.874;2022-07-01T06:18:54;10.60;;;3.85;;
62941;SDS011;49042;47.318;19.874;2022-07-01T06:21:56;8.07;;;3.85;;
62941;SDS011;49042;47.318;19.874;2022-07-01T06:24:58;8.57;;;4.28;;
62941;SDS011;49042;47.318;19.874;2022-07-01T06:28:00;11.88;;;4.12;;
62941;SDS011;49042;47.318;19.874;2022-07-01T06:31:03;9.57;;;3.80;;
62941;SDS011;49042;47.318;19.874;2022-07-01T06:34:05;5.07;;;3.65;;
62941;SDS011;49042;47.318;19.874;2022-07-01T06:37:06;9.57;;;4.15;;
62941;SDS011;49042;47.318;19.874;2022-07-01T06:40:09;11.35;;;4.68;;
62941;SDS011;49042;47.318;19.874;2022-07-01T06:43:11;10.57;;;4.25;;
62941;SDS011;49042;47.318;19.874;2022-07-01T06:46:13;14.80;;;4.68;;
62941;SDS011;49042;47.318;19.874;2022-07-01T06:49:15;8.98;;;4.25;;
62941;SDS011;49042;47.318;19.874;2022-07-01T06:52:17;12.23;;;4.35;;
62941;SDS011;49042;47.318;19.874;2022-07-01T06:55:19;9.35;;;3.87;;
62941;SDS011;49042;47.318;19.874;2022-07-01T06:58:21;8.48;;;4.05;;
62941;SDS011;49042;47.318;19.874;2022-07-01T07:01:23;9.25;;;3.72;;
62941;SDS011;49042;47.318;19.874;2022-07-01T07:04:26;8.10;;;3.50;;
62941;SDS011;49042;47.318;19.874;2022-07-01T07:07:48;16.42;;;4.00;;
62941;SDS011;49042;47.318;19.874;2022-07-01T07:10:49;9.05;;;3.78;;
62941;SDS011;49042;47.318;19.874;2022-07-01T07:13:52;7.85;;;3.65;;
62941;SDS011;49042;47.318;19.874;2022-07-01T07:16:54;7.68;;;3.85;;
62941;SDS011;49042;47.318;19.874;2022-07-01T07:19:56;10.65;;;4.18;;
62941;SDS011;49042;47.318;19.874;2022-07-01T07:22:58;9.07;;;3.87;;
62941;SDS011;49042;47.318;19.874;2022-07-01T07:26:00;13.75;;;4.00;;
62941;SDS011;49042;47.318;19.874;2022-07-01T07:29:02;13.02;;;4.45;;
62941;SDS011;49042;47.318;19.874;2022-07-01T07:32:04;5.35;;;3.55;;
62941;SDS011;49042;47.318;19.874;2022-07-01T07:35:07;12.32;;;4.57;;
62941;SDS011;49042;47.318;19.874;2022-07-01T07:38:09;8.60;;;3.95;;
62941;SDS011;49042;47.318;19.874;2022-07-01T07:41:11;10.07;;;4.55;;
62941;SDS011;49042;47.318;19.874;2022-07-01T07:44:14;8.13;;;3.90;;
62941;SDS011;49042;47.318;19.874;2022-07-01T07:47:16;14.80;;;3.67;;
62941;SDS011;49042;47.318;19.874;2022-07-01T07:50:18;13.57;;;4.03;;
62941;SDS011;49042;47.318;19.874;2022-07-01T07:53:19;11.73;;;4.03;;
62941;SDS011;49042;47.318;19.874;2022-07-01T07:56:21;10.98;;;4.05;;
62941;SDS011;49042;47.318;19.874;2022-07-01T07:59:23;13.30;;;3.90;;
62941;SDS011;49042;47.318;19.874;2022-07-01T08:02:25;10.30;;;4.05;;
62941;SDS011;49042;47.318;19.874;2022-07-01T08:05:27;9.05;;;3.37;;
62941;SDS011;49042;47.318;19.874;2022-07-01T08:08:29;10.88;;;3.85;;
62941;SDS011;49042;47.318;19.874;2022-07-01T08:11:31;12.02;;;3.83;;
62941;SDS011;49042;47.318;19.874;2022-07-01T08:14:33;7.57;;;3.65;;
62941;SDS011;49042;47.318;19.874;2022-07-01T08:17:35;11.07;;;4.90;;
62941;SDS011;49042;47.318;19.874;2022-07-01T08:20:37;9.15;;;4.45;;
62941;SDS011;49042;47.318;19.874;2022-07-01T08:23:39;14.65;;;3.90;;
62941;SDS011;49042;47.318;19.874;2022-07-01T08:26:41;8.60;;;3.47;;
62941;SDS011;49042;47.318;19.874;2022-07-01T08:29:43;6.45;;;3.45;;
62941;SDS011;49042;47.318;19.874;2022-07-01T08:32:45;10.05;;;3.70;;
62941;SDS011;49042;47.318;19.874;2022-07-01T08:35:47;13.18;;;3.83;;
62941;SDS011;49042;47.318;19.874;2022-07-01T08:38:49;12.30;;;3.60;;
62941;SDS011;49042;47.318;19.874;2022-07-01T08:41:51;15.48;;;3.78;;
62941;SDS011;49042;47.318;19.874;2022-07-01T08:44:53;7.45;;;3.92;;
62941;SDS011;49042;47.318;19.874;2022-07-01T08:47:56;8.93;;;3.47;;
62941;SDS011;49042;47.318;19.874;2022-07-01T08:50:59;12.15;;;3.67;;
62941;SDS011;49042;47.318;19.874;2022-07-01T08:57:07;9.20;;;3.50;;
62941;SDS011;49042;47.318;19.874;2022-07-01T09:00:09;7.93;;;2.95;;
62941;SDS011;49042;47.318;19.874;2022-07-01T09:03:12;10.48;;;3.10;;
62941;SDS011;49042;47.318;19.874;2022-07-01T09:06:15;12.27;;;3.67;;
62941;SDS011;49042;47.318;19.874;2022-07-01T09:09:19;12.23;;;3.17;;
62941;SDS011;49042;47.318;19.874;2022-07-01T09:12:22;9.77;;;3.35;;
62941;SDS011;49042;47.318;19.874;2022-07-01T09:18:27;10.98;;;2.83;;
62941;SDS011;49042;47.318;19.874;2022-07-01T09:21:29;11.77;;;3.05;;
62941;SDS011;49042;47.318;19.874;2022-07-01T09:27:34;6.35;;;2.22;;
62941;SDS011;49042;47.318;19.874;2022-07-01T09:30:36;8.07;;;2.35;;
62941;SDS011;49042;47.318;19.874;2022-07-01T09:33:39;6.28;;;2.30;;
62941;SDS011;49042;47.318;19.874;2022-07-01T09:36:46;5.60;;;2.42;;
62941;SDS011;49042;47.318;19.874;2022-07-01T09:39:56;10.30;;;2.60;;
62941;SDS011;49042;47.318;19.874;2022-07-01T09:42:59;17.50;;;3.03;;
62941;SDS011;49042;47.318;19.874;2022-07-01T09:46:09;10.25;;;2.55;;
62941;SDS011;49042;47.318;19.874;2022-07-01T09:49:12;12.00;;;3.22;;
62941;SDS011;49042;47.318;19.874;2022-07-01T09:52:14;6.87;;;2.50;;
62941;SDS011;49042;47.318;19.874;2022-07-01T09:55:17;8.43;;;2.65;;
62941;SDS011;49042;47.318;19.874;2022-07-01T09:58:19;7.12;;;2.40;;
62941;SDS011;49042;47.318;19.874;2022-07-01T10:01:22;10.40;;;2.60;;
62941;SDS011;49042;47.318;19.874;2022-07-01T10:04:24;8.88;;;2.33;;
62941;SDS011;49042;47.318;19.874;2022-07-01T10:10:57;10.05;;;2.60;;
62941;SDS011;49042;47.318;19.874;2022-07-01T10:14:17;10.32;;;2.50;;
62941;SDS011;49042;47.318;19.874;2022-07-01T10:17:30;8.75;;;2.92;;
62941;SDS011;49042;47.318;19.874;2022-07-01T10:20:45;6.85;;;2.30;;
62941;SDS011;49042;47.318;19.874;2022-07-01T10:23:48;9.05;;;2.85;;
62941;SDS011;49042;47.318;19.874;2022-07-01T10:26:52;7.25;;;2.35;;
62941;SDS011;49042;47.318;19.874;2022-07-01T10:30:12;7.07;;;2.15;;
62941;SDS011;49042;47.318;19.874;2022-07-01T10:33:38;8.02;;;2.80;;
62941;SDS011;49042;47.318;19.874;2022-07-01T10:36:41;12.85;;;2.70;;
62941;SDS011;49042;47.318;19.874;2022-07-01T10:42:59;10.70;;;2.60;;
62941;SDS011;49042;47.318;19.874;2022-07-01T10:53:03;9.20;;;2.55;;
62941;SDS011;49042;47.318;19.874;2022-07-01T10:56:05;15.00;;;3.20;;
62941;SDS011;49042;47.318;19.874;2022-07-01T10:59:07;13.73;;;3.35;;
62941;SDS011;49042;47.318;19.874;2022-07-01T11:02:22;11.50;;;3.10;;
62941;SDS011;49042;47.318;19.874;2022-07-01T11:05:24;9.82;;;3.10;;
62941;SDS011;49042;47.318;19.874;2022-07-01T11:08:27;10.73;;;3.00;;
62941;SDS011;49042;47.318;19.874;2022-07-01T11:11:32;13.50;;;2.92;;
62941;SDS011;49042;47.318;19.874;2022-07-01T11:14:35;13.52;;;3.42;;
62941;SDS011;49042;47.318;19.874;2022-07-01T11:17:45;12.55;;;3.85;;
62941;SDS011;49042;47.318;19.874;2022-07-01T11:20:48;13.35;;;3.78;;
62941;SDS011;49042;47.318;19.874;2022-07-01T11:23:53;20.85;;;3.67;;
62941;SDS011;49042;47.318;19.874;2022-07-01T11:27:07;11.25;;;2.80;;
62941;SDS011;49042;47.318;19.874;2022-07-01T11:30:10;10.73;;;3.70;;
62941;SDS011;49042;47.318;19.874;2022-07-01T11:33:23;9.10;;;3.35;;
62941;SDS011;49042;47.318;19.874;2022-07-01T11:36:25;20.50;;;3.50;;
62941;SDS011;49042;47.318;19.874;2022-07-01T11:39:46;11.10;;;3.60;;
62941;SDS011;49042;47.318;19.874;2022-07-01T11:42:48;11.30;;;3.60;;
62941;SDS011;49042;47.318;19.874;2022-07-01T11:45:51;15.20;;;4.03;;
62941;SDS011;49042;47.318;19.874;2022-07-01T11:48:53;16.25;;;3.85;;
62941;SDS011;49042;47.318;19.874;2022-07-01T11:52:01;17.83;;;3.45;;
62941;SDS011;49042;47.318;19.874;2022-07-01T11:55:09;16.23;;;3.45;;
62941;SDS011;49042;47.318;19.874;2022-07-01T12:02:03;11.75;;;3.85;;
62941;SDS011;49042;47.318;19.874;2022-07-01T12:05:05;14.95;;;3.85;;
62941;SDS011;49042;47.318;19.874;2022-07-01T12:08:08;23.23;;;3.70;;
62941;SDS011;49042;47.318;19.874;2022-07-01T12:11:11;13.40;;;3.30;;
62941;SDS011;49042;47.318;19.874;2022-07-01T12:14:23;11.88;;;3.58;;
62941;SDS011;49042;47.318;19.874;2022-07-01T12:17:26;18.45;;;3.92;;
62941;SDS011;49042;47.318;19.874;2022-07-01T12:20:32;13.20;;;4.07;;
62941;SDS011;49042;47.318;19.874;2022-07-01T12:23:34;18.83;;;3.92;;
62941;SDS011;49042;47.318;19.874;2022-07-01T12:26:48;11.68;;;3.70;;
62941;SDS011;49042;47.318;19.874;2022-07-01T12:29:53;8.40;;;3.70;;
62941;SDS011;49042;47.318;19.874;2022-07-01T12:32:56;15.82;;;4.62;;
62941;SDS011;49042;47.318;19.874;2022-07-01T12:35:58;9.90;;;4.32;;
62941;SDS011;49042;47.318;19.874;2022-07-01T12:39:05;13.57;;;3.53;;
62941;SDS011;49042;47.318;19.874;2022-07-01T12:42:07;14.53;;;3.77;;
62941;SDS011;49042;47.318;19.874;2022-07-01T12:45:13;15.15;;;3.70;;
62941;SDS011;49042;47.318;19.874;2022-07-01T12:48:17;12.13;;;3.85;;
62941;SDS011;49042;47.318;19.874;2022-07-01T12:51:18;10.60;;;3.67;;
62941;SDS011;49042;47.318;19.874;2022-07-01T12:54:31;15.70;;;3.95;;
62941;SDS011;49042;47.318;19.874;2022-07-01T12:57:34;11.82;;;3.60;;
62941;SDS011;49042;47.318;19.874;2022-07-01T13:00:40;15.25;;;4.47;;
62941;SDS011;49042;47.318;19.874;2022-07-01T13:03:43;19.83;;;4.53;;
62941;SDS011;49042;47.318;19.874;2022-07-01T13:06:45;12.50;;;3.53;;
62941;SDS011;49042;47.318;19.874;2022-07-01T13:09:46;7.32;;;3.58;;
62941;SDS011;49042;47.318;19.874;2022-07-01T13:12:49;12.98;;;3.90;;
62941;SDS011;49042;47.318;19.874;2022-07-01T13:15:52;16.60;;;3.35;;
62941;SDS011;49042;47.318;19.874;2022-07-01T13:18:54;8.90;;;3.50;;
62941;SDS011;49042;47.318;19.874;2022-07-01T13:21:56;8.75;;;3.47;;
62941;SDS011;49042;47.318;19.874;2022-07-01T13:24:58;8.75;;;3.60;;
62941;SDS011;49042;47.318;19.874;2022-07-01T13:28:00;20.37;;;3.42;;
62941;SDS011;49042;47.318;19.874;2022-07-01T13:31:02;10.98;;;3.37;;
62941;SDS011;49042;47.318;19.874;2022-07-01T13:34:03;8.88;;;3.22;;
62941;SDS011;49042;47.318;19.874;2022-07-01T13:37:05;16.37;;;3.65;;
62941;SDS011;49042;47.318;19.874;2022-07-01T13:40:08;10.40;;;3.67;;
62941;SDS011;49042;47.318;19.874;2022-07-01T13:43:11;18.37;;;4.65;;
62941;SDS011;49042;47.318;19.874;2022-07-01T13:46:13;8.95;;;3.05;;
62941;SDS011;49042;47.318;19.874;2022-07-01T13:49:15;9.55;;;3.10;;
62941;SDS011;49042;47.318;19.874;2022-07-01T13:52:17;12.68;;;3.45;;
62941;SDS011;49042;47.318;19.874;2022-07-01T13:55:19;8.93;;;2.75;;
62941;SDS011;49042;47.318;19.874;2022-07-01T13:58:21;12.18;;;3.30;;
62941;SDS011;49042;47.318;19.874;2022-07-01T14:01:23;12.98;;;3.15;;
62941;SDS011;49042;47.318;19.874;2022-07-01T14:04:25;11.40;;;3.55;;
62941;SDS011;49042;47.318;19.874;2022-07-01T14:07:28;11.77;;;3.83;;
62941;SDS011;49042;47.318;19.874;2022-07-01T14:10:30;8.32;;;2.90;;
62941;SDS011;49042;47.318;19.874;2022-07-01T14:13:34;13.77;;;4.10;;
62941;SDS011;49042;47.318;19.874;2022-07-01T14:16:36;8.48;;;3.42;;
62941;SDS011;49042;47.318;19.874;2022-07-01T14:19:38;6.85;;;3.53;;
62941;SDS011;49042;47.318;19.874;2022-07-01T14:22:41;16.92;;;3.50;;
62941;SDS011;49042;47.318;19.874;2022-07-01T14:25:43;15.57;;;3.78;;
62941;SDS011;49042;47.318;19.874;2022-07-01T14:28:46;15.30;;;3.58;;
62941;SDS011;49042;47.318;19.874;2022-07-01T14:31:48;14.95;;;3.75;;
62941;SDS011;49042;47.318;19.874;2022-07-01T14:34:50;15.45;;;3.40;;
62941;SDS011;49042;47.318;19.874;2022-07-01T14:37:52;14.80;;;3.85;;
62941;SDS011;49042;47.318;19.874;2022-07-01T14:40:54;15.13;;;3.40;;
62941;SDS011;49042;47.318;19.874;2022-07-01T14:43:56;9.55;;;3.65;;
62941;SDS011;49042;47.318;19.874;2022-07-01T14:46:58;14.35;;;3.37;;
62941;SDS011;49042;47.318;19.874;2022-07-01T14:50:00;15.52;;;4.15;;
62941;SDS011;49042;47.318;19.874;2022-07-01T14:56:35;10.75;;;4.00;;
62941;SDS011;49042;47.318;19.874;2022-07-01T14:59:37;13.13;;;4.07;;
62941;SDS011;49042;47.318;19.874;2022-07-01T15:02:39;18.20;;;3.90;;
62941;SDS011;49042;47.318;19.874;2022-07-01T15:05:41;11.80;;;3.80;;
62941;SDS011;49042;47.318;19.874;2022-07-01T15:08:43;10.65;;;3.50;;
62941;SDS011;49042;47.318;19.874;2022-07-01T15:11:44;15.57;;;3.87;;
62941;SDS011;49042;47.318;19.874;2022-07-01T15:14:54;11.57;;;3.65;;
62941;SDS011;49042;47.318;19.874;2022-07-01T15:17:56;19.33;;;4.10;;
62941;SDS011;49042;47.318;19.874;2022-07-01T15:20:58;17.73;;;4.70;;
62941;SDS011;49042;47.318;19.874;2022-07-01T15:24:01;24.05;;;4.32;;
62941;SDS011;49042;47.318;19.874;2022-07-01T15:27:03;15.07;;;3.53;;
62941;SDS011;49042;47.318;19.874;2022-07-01T15:30:06;13.30;;;3.67;;
62941;SDS011;49042;47.318;19.874;2022-07-01T15:33:08;31.55;;;6.72;;
62941;SDS011;49042;47.318;19.874;2022-07-01T15:36:10;52.88;;;18.23;;
62941;SDS011;49042;47.318;19.874;2022-07-01T15:39:12;56.45;;;9.85;;
62941;SDS011;49042;47.318;19.874;2022-07-01T15:42:17;17.58;;;5.20;;
62941;SDS011;49042;47.318;19.874;2022-07-01T15:45:19;15.60;;;5.82;;
62941;SDS011;49042;47.318;19.874;2022-07-01T15:48:21;14.18;;;5.35;;
62941;SDS011;49042;47.318;19.874;2022-07-01T15:51:23;13.23;;;5.60;;
62941;SDS011;49042;47.318;19.874;2022-07-01T15:54:29;24.10;;;6.95;;
62941;SDS011;49042;47.318;19.874;2022-07-01T15:57:31;14.15;;;6.50;;
62941;SDS011;49042;47.318;19.874;2022-07-01T16:00:33;11.35;;;6.45;;
62941;SDS011;49042;47.318;19.874;2022-07-01T16:03:35;15.05;;;6.93;;
62941;SDS011;49042;47.318;19.874;2022-07-01T16:06:37;17.83;;;6.70;;
62941;SDS011;49042;47.318;19.874;2022-07-01T16:09:39;16.50;;;7.37;;
62941;SDS011;49042;47.318;19.874;2022-07-01T16:12:43;13.15;;;6.68;;
62941;SDS011;49042;47.318;19.874;2022-07-01T16:15:48;11.57;;;6.25;;
62941;SDS011;49042;47.318;19.874;2022-07-01T16:18:55;9.85;;;5.30;;
62941;SDS011;49042;47.318;19.874;2022-07-01T16:21:59;9.52;;;4.85;;
62941;SDS011;49042;47.318;19.874;2022-07-01T16:25:05;10.23;;;4.95;;
62941;SDS011;49042;47.318;19.874;2022-07-01T16:28:10;12.30;;;6.12;;
62941;SDS011;49042;47.318;19.874;2022-07-01T16:31:12;11.38;;;5.18;;
62941;SDS011;49042;47.318;19.874;2022-07-01T16:34:16;14.60;;;6.07;;
62941;SDS011;49042;47.318;19.874;2022-07-01T16:37:18;15.52;;;7.45;;
62941;SDS011;49042;47.318;19.874;2022-07-01T16:40:26;16.17;;;9.05;;
62941;SDS011;49042;47.318;19.874;2022-07-01T16:43:35;24.15;;;13.15;;
62941;SDS011;49042;47.318;19.874;2022-07-01T16:46:41;20.85;;;11.50;;
62941;SDS011;49042;47.318;19.874;2022-07-01T16:49:45;21.55;;;11.43;;
62941;SDS011;49042;47.318;19.874;2022-07-01T16:52:50;19.62;;;11.05;;
62941;SDS011;49042;47.318;19.874;2022-07-01T16:55:54;18.87;;;7.80;;
62941;SDS011;49042;47.318;19.874;2022-07-01T16:58:59;12.75;;;6.10;;
62941;SDS011;49042;47.318;19.874;2022-07-01T17:02:06;13.60;;;5.55;;
62941;SDS011;49042;47.318;19.874;2022-07-01T17:05:08;15.10;;;5.93;;
62941;SDS011;49042;47.318;19.874;2022-07-01T17:08:11;11.35;;;5.82;;
62941;SDS011;49042;47.318;19.874;2022-07-01T17:11:15;16.42;;;5.43;;
62941;SDS011;49042;47.318;19.874;2022-07-01T17:14:20;15.65;;;6.07;;
62941;SDS011;49042;47.318;19.874;2022-07-01T17:17:24;19.15;;;5.65;;
62941;SDS011;49042;47.318;19.874;2022-07-01T17:20:28;17.65;;;6.47;;
62941;SDS011;49042;47.318;19.874;2022-07-01T17:23:35;14.85;;;6.05;;
62941;SDS011;49042;47.318;19.874;2022-07-01T17:30:07;19.80;;;5.90;;
62941;SDS011;49042;47.318;19.874;2022-07-01T17:33:16;15.30;;;5.70;;
62941;SDS011;49042;47.318;19.874;2022-07-01T17:36:19;11.32;;;6.00;;
62941;SDS011;49042;47.318;19.874;2022-07-01T17:39:23;13.43;;;6.22;;
62941;SDS011;49042;47.318;19.874;2022-07-01T17:42:36;18.05;;;6.28;;
62941;SDS011;49042;47.318;19.874;2022-07-01T17:45:38;15.50;;;6.05;;
62941;SDS011;49042;47.318;19.874;2022-07-01T17:48:41;16.27;;;5.00;;
62941;SDS011;49042;47.318;19.874;2022-07-01T17:51:46;23.67;;;6.22;;
62941;SDS011;49042;47.318;19.874;2022-07-01T17:54:48;13.95;;;5.87;;
62941;SDS011;49042;47.318;19.874;2022-07-01T17:57:51;10.52;;;5.18;;
62941;SDS011;49042;47.318;19.874;2022-07-01T18:00:53;10.88;;;5.43;;
62941;SDS011;49042;47.318;19.874;2022-07-01T18:03:55;15.02;;;5.62;;
62941;SDS011;49042;47.318;19.874;2022-07-01T18:06:59;16.15;;;5.43;;
62941;SDS011;49042;47.318;19.874;2022-07-01T18:10:01;13.95;;;4.90;;
62941;SDS011;49042;47.318;19.874;2022-07-01T18:13:02;10.30;;;4.90;;
62941;SDS011;49042;47.318;19.874;2022-07-01T18:16:06;15.35;;;4.97;;
62941;SDS011;49042;47.318;19.874;2022-07-01T18:19:26;14.33;;;5.20;;
62941;SDS011;49042;47.318;19.874;2022-07-01T18:22:40;12.13;;;4.53;;
62941;SDS011;49042;47.318;19.874;2022-07-01T18:25:43;13.80;;;4.87;;
62941;SDS011;49042;47.318;19.874;2022-07-01T18:28:45;12.52;;;5.57;;